WetterOnline ( https://www.wetteronline.de )

Wetter aktuell Namest Nad Oslav

Aktuelles Wetter: Namest Nad Oslav (479m)

6-stündlich | Neueste Meldungen
Ortszeit Temperatur Wetter
Sa, 20.07. 2:00 16.8° C wolkig
Fr, 19.07. 20:00 18.3° C wolkig
Fr, 19.07. 14:00 21.1° C wolkig
Fr, 19.07. 8:00 18.2° C leicht bewölkt
Fr, 19.07. 2:00 16.1° C leicht bewölkt
Do, 18.07. 20:00 19.0° C leicht bewölkt
Do, 18.07. 14:00 23.4° C wolkig
Do, 18.07. 8:00 15.7° C wolkig
Ortszeit Temperatur Wetter
Sa, 20.07. 7:00 16.8° C leicht bewölkt
Sa, 20.07. 6:00 16.1° C leicht bewölkt
Sa, 20.07. 5:00 15.7° C leicht bewölkt
Sa, 20.07. 4:00 16.4° C leicht bewölkt
Sa, 20.07. 3:00 16.5° C leicht bewölkt
Sa, 20.07. 2:00 16.8° C wolkig
Ortszeit Relative Feuchte Sichtweite
Sa, 20.07. 2:00 87% 20 km
Fr, 19.07. 20:00 81% 30 km
Fr, 19.07. 14:00 70% 30 km
Fr, 19.07. 8:00 75% 30 km
Fr, 19.07. 2:00 73% 20 km
Do, 18.07. 20:00 68% 20 km
Do, 18.07. 14:00 42% 30 km
Do, 18.07. 8:00 68% 30 km
Ortszeit Relative Feuchte Sichtweite
Sa, 20.07. 7:00 85% 10 km
Sa, 20.07. 6:00 83% 20 km
Sa, 20.07. 5:00 93% 10 km
Sa, 20.07. 4:00 93% 10 km
Sa, 20.07. 3:00 91% 20 km
Sa, 20.07. 2:00 87% 20 km
Ortszeit Niederschlagsmenge Niederschlagsart
Sa, 20.07. 2:00 0.0 l/m2 in 6 Std. -
Fr, 19.07. 20:00 2 l/m2 in 12 Std. Gewitter, Schauer
Fr, 19.07. 14:00 2 l/m2 in 6 Std. Gewitter, Schauer
Fr, 19.07. 8:00 0.0 l/m2 in 12 Std. -
Fr, 19.07. 2:00 0.0 l/m2 in 6 Std. -
Do, 18.07. 20:00 1 l/m2 in 12 Std. Schauer
Do, 18.07. 14:00 0.0 l/m2 in 6 Std. -
Do, 18.07. 8:00 0.0 l/m2 in 12 Std. -
Ortszeit Niederschlagsmenge Niederschlagsart
Sa, 20.07. 7:00 0.0 l/m2 in 1 Std. -
Sa, 20.07. 6:00 0.0 l/m2 in 1 Std. -
Sa, 20.07. 5:00 0.0 l/m2 in 1 Std. -
Sa, 20.07. 4:00 0.0 l/m2 in 1 Std. -
Sa, 20.07. 3:00 0.0 l/m2 in 1 Std. -
Sa, 20.07. 2:00 0.0 l/m2 in 1 Std. -
Ortszeit Stärke Spitze Richtung
km/h Bft. km/h Grad Sektor
Sa, 20.07. 2:00 7 2 - 360° N
Fr, 19.07. 20:00 7 2 50 340° N
Fr, 19.07. 14:00 11 2 - 90° O
Fr, 19.07. 8:00 4 1 - 80° O
Fr, 19.07. 2:00 7 2 - 360° N
Do, 18.07. 20:00 4 1 47 120° SO
Do, 18.07. 14:00 7 2 - 130° SO
Do, 18.07. 8:00 4 1 - 310° NW
Ortszeit Stärke Spitze Richtung
km/h Bft. km/h Grad Sektor
Sa, 20.07. 7:00 7 2 - 350° N
Sa, 20.07. 6:00 7 2 - 340° N
Sa, 20.07. 5:00 11 2 - 350° N
Sa, 20.07. 4:00 11 2 - 340° N
Sa, 20.07. 3:00 7 2 - 350° N
Sa, 20.07. 2:00 7 2 - 360° N
Ortszeit Untergrenze Bedeckung Gattung
total tief tief mittel hoch
Sa, 20.07. 2:00 2100 m 7/8 7/8 - As -
Fr, 19.07. 20:00 3000 m 7/8 7/8 - As -
Fr, 19.07. 14:00 1500 m 7/8 5/8 Cb Ns -
Fr, 19.07. 8:00 3000 m 5/8 3/8 - Ac Cs
Fr, 19.07. 2:00 2700 m 3/8 3/8 - Ac -
Do, 18.07. 20:00 1500 m 4/8 1/8 Cu Ac -
Do, 18.07. 14:00 1800 m 5/8 5/8 Cu - -
Do, 18.07. 8:00 2400 m 7/8 6/8 - Ac Ci
Ortszeit Bedeckungsgrad in Achtel und Wolkenuntergrenze
Sa, 20.07. 7:00 3(3300m)
Sa, 20.07. 6:00 3(3600m)
Sa, 20.07. 5:00 4(3600m)
Sa, 20.07. 4:00 7(3300m)
Sa, 20.07. 3:00 7(3000m)
Sa, 20.07. 2:00 4(2100m) 7(3000m)
Ortszeit Luftdruck NN (hPa) Tendenz (hPa in 3 Std.)
Sa, 20.07. 2:00 1017 - 0,2
Fr, 19.07. 20:00 1016 + 0,7
Fr, 19.07. 14:00 1015 + 0,1
Fr, 19.07. 8:00 1014 + 0,5
Fr, 19.07. 2:00 1014 + 0,4
Do, 18.07. 20:00 1012 + 0,5
Do, 18.07. 14:00 1011 - 0,6
Do, 18.07. 8:00 1013 + 0,2
Ortszeit Luftdruck NN (hPa) Tendenz (hPa in 3 Std.)
Sa, 20.07. 7:00 1017 + 0,1
Sa, 20.07. 6:00 1017 + 0,1
Sa, 20.07. 5:00 1017 - 0,2
Sa, 20.07. 4:00 1017 - 0,4
Sa, 20.07. 3:00 1017 - 0,6
Sa, 20.07. 2:00 1017 - 0,2
Ortszeit Schneehöhe (cm)
Sa, 20.07. 2:00 -
Fr, 19.07. 20:00 -
Fr, 19.07. 14:00 -
Fr, 19.07. 8:00 -
Fr, 19.07. 2:00 -
Do, 18.07. 20:00 -
Do, 18.07. 14:00 -
Do, 18.07. 8:00 -
Ortszeit Schneehöhe (cm)
Sa, 20.07. 7:00 -
Sa, 20.07. 6:00 -
Sa, 20.07. 5:00 -
Sa, 20.07. 4:00 -
Sa, 20.07. 3:00 -
Sa, 20.07. 2:00 -
Link zu dieser Seite / Seite empfehlen

Das Wetter in ...